createdAt,value
2018-06-28T00:01:29.069Z,2.50
2018-06-28T00:03:57.597Z,2.20
2018-06-28T00:06:26.061Z,2.10
2018-06-28T00:08:54.491Z,2.20
2018-06-28T00:11:23.107Z,2.60
2018-06-28T00:13:51.561Z,2.50
2018-06-28T00:16:19.973Z,2.50
2018-06-28T00:18:48.358Z,2.63
2018-06-28T00:21:16.898Z,2.70
2018-06-28T00:23:45.444Z,2.50
2018-06-28T00:26:13.845Z,2.53
2018-06-28T00:28:42.360Z,2.43
2018-06-28T00:31:10.788Z,2.60
2018-06-28T00:33:39.178Z,2.17
2018-06-28T00:36:07.601Z,2.30
2018-06-28T00:38:36.016Z,2.50
2018-06-28T00:41:04.568Z,2.40
2018-06-28T00:43:33.083Z,2.40
2018-06-28T00:46:01.566Z,2.30
2018-06-28T00:48:30.028Z,2.57
2018-06-28T00:50:58.457Z,2.40
2018-06-28T00:53:26.844Z,2.30
2018-06-28T00:55:55.272Z,2.40
2018-06-28T00:58:23.952Z,2.33
2018-06-28T01:00:52.690Z,2.30
2018-06-28T01:03:21.076Z,2.50
2018-06-28T01:05:49.538Z,2.23
2018-06-28T01:08:17.969Z,2.50
2018-06-28T01:10:46.390Z,2.57
2018-06-28T01:13:14.772Z,2.53
2018-06-28T01:15:43.182Z,2.53
2018-06-28T01:18:11.625Z,2.50
2018-06-28T01:20:40.129Z,2.63
2018-06-28T01:23:08.662Z,2.80
2018-06-28T01:25:37.227Z,2.27
2018-06-28T01:28:05.736Z,2.40
2018-06-28T01:30:34.301Z,2.70
2018-06-28T01:33:02.744Z,3.00
2018-06-28T01:35:31.143Z,3.10
2018-06-28T01:37:59.644Z,2.70
2018-06-28T01:40:28.068Z,2.90
2018-06-28T01:43:07.753Z,3.00
2018-06-28T01:45:36.170Z,3.13
2018-06-28T01:48:04.654Z,3.40
2018-06-28T01:50:33.066Z,3.27
2018-06-28T01:53:01.502Z,3.20
2018-06-28T01:55:29.997Z,3.30
2018-06-28T01:57:58.409Z,3.47
2018-06-28T02:00:26.800Z,3.37
2018-06-28T02:02:55.218Z,3.43
2018-06-28T02:05:23.657Z,3.20
2018-06-28T02:07:51.811Z,3.10
2018-06-28T02:10:20.250Z,3.47
2018-06-28T02:12:48.676Z,3.13
2018-06-28T02:15:17.580Z,3.30
2018-06-28T02:17:46.008Z,3.10
2018-06-28T02:20:14.471Z,3.27
2018-06-28T02:22:42.993Z,3.20
2018-06-28T02:25:11.421Z,3.37
2018-06-28T02:27:39.889Z,3.20
2018-06-28T02:30:08.366Z,3.30
2018-06-28T02:32:36.791Z,3.30
2018-06-28T02:35:05.524Z,3.37
2018-06-28T02:37:33.930Z,3.17
2018-06-28T02:40:02.485Z,3.00
2018-06-28T02:42:30.874Z,2.90
2018-06-28T02:44:59.268Z,3.10
2018-06-28T02:47:27.672Z,3.47
2018-06-28T02:49:56.145Z,3.40
2018-06-28T02:52:24.572Z,2.97
2018-06-28T02:54:53.013Z,3.47
2018-06-28T02:57:21.435Z,2.90
2018-06-28T02:59:49.868Z,3.17
2018-06-28T03:02:18.313Z,3.50
2018-06-28T03:04:46.719Z,3.07
2018-06-28T03:07:15.143Z,3.20
2018-06-28T03:09:43.532Z,3.17
2018-06-28T03:12:12.027Z,3.03
2018-06-28T03:14:42.560Z,3.37
2018-06-28T03:17:11.022Z,3.03
2018-06-28T03:19:39.446Z,3.00
2018-06-28T03:22:08.157Z,3.10
2018-06-28T03:24:36.840Z,3.37
2018-06-28T03:27:05.353Z,3.47
2018-06-28T03:29:33.776Z,3.60
2018-06-28T03:32:02.202Z,3.13
2018-06-28T03:34:32.612Z,3.30
2018-06-28T03:37:01.224Z,3.00
2018-06-28T03:39:29.697Z,3.50
2018-06-28T03:41:58.120Z,3.57
2018-06-28T03:44:26.252Z,3.53
2018-06-28T03:46:54.684Z,3.33
2018-06-28T03:49:23.108Z,3.40
2018-06-28T03:51:51.513Z,3.57
2018-06-28T03:54:19.942Z,3.53
2018-06-28T03:56:48.375Z,3.50
2018-06-28T03:59:16.829Z,3.40
2018-06-28T04:01:45.252Z,3.70
2018-06-28T04:04:13.500Z,3.43
2018-06-28T04:06:42.163Z,3.27
2018-06-28T04:09:11.776Z,3.80
2018-06-28T04:11:40.236Z,3.50
2018-06-28T04:14:08.745Z,3.63
2018-06-28T04:16:37.231Z,3.80
2018-06-28T04:19:05.835Z,3.93
2018-06-28T04:21:34.233Z,4.17
2018-06-28T04:24:02.643Z,3.93
2018-06-28T04:26:31.081Z,3.40
2018-06-28T04:28:59.473Z,3.70
2018-06-28T04:31:27.644Z,3.97
2018-06-28T04:33:56.417Z,3.50
2018-06-28T04:36:24.870Z,4.00
2018-06-28T04:38:53.314Z,3.60
2018-06-28T04:41:21.710Z,4.10
2018-06-28T04:43:50.099Z,3.47
2018-06-28T04:46:18.513Z,3.10
2018-06-28T04:48:46.921Z,3.60
2018-06-28T04:51:15.352Z,3.30
2018-06-28T04:53:43.945Z,3.67
2018-06-28T04:56:12.426Z,3.50
2018-06-28T04:58:40.809Z,3.47
2018-06-28T05:01:09.267Z,3.33
2018-06-28T05:03:37.644Z,2.80
2018-06-28T05:06:06.085Z,2.60
2018-06-28T05:08:34.495Z,3.10
2018-06-28T05:11:02.928Z,3.10
2018-06-28T05:13:31.337Z,3.10
2018-06-28T05:15:59.496Z,2.53
2018-06-28T05:18:27.933Z,2.43
2018-06-28T05:20:56.348Z,2.10
2018-06-28T05:23:24.810Z,2.03
2018-06-28T05:25:53.198Z,2.20
2018-06-28T05:28:21.723Z,2.40
2018-06-28T05:30:50.153Z,1.90
2018-06-28T05:33:18.645Z,1.77
2018-06-28T05:35:47.082Z,1.87
2018-06-28T05:38:15.506Z,1.90
2018-06-28T05:40:43.912Z,3.80
2018-06-28T05:43:12.325Z,3.60
2018-06-28T05:45:40.766Z,2.00
2018-06-28T05:48:09.169Z,1.70
2018-06-28T05:50:37.757Z,2.02
2018-06-28T05:53:06.140Z,3.25
2018-06-28T05:55:34.527Z,1.92
2018-06-28T05:58:02.944Z,2.05
2018-06-28T06:00:31.392Z,1.90
2018-06-28T06:03:00.119Z,2.20
2018-06-28T06:05:28.875Z,2.10
2018-06-28T06:07:57.314Z,2.10
2018-06-28T06:10:26.029Z,2.00
2018-06-28T06:12:54.474Z,2.02
2018-06-28T06:15:23.005Z,2.47
2018-06-28T06:17:51.441Z,2.45
2018-06-28T06:20:19.872Z,2.40
2018-06-28T06:22:48.225Z,2.52
2018-06-28T06:25:16.653Z,2.92
2018-06-28T06:27:45.037Z,2.98
2018-06-28T06:30:13.556Z,2.10
2018-06-28T06:32:41.974Z,2.83
2018-06-28T06:35:10.398Z,2.40
2018-06-28T06:37:38.800Z,2.58
2018-06-28T06:40:07.249Z,2.50
2018-06-28T06:42:35.695Z,2.20
2018-06-28T06:45:04.572Z,2.27
2018-06-28T06:47:33.059Z,3.20
2018-06-28T06:50:01.485Z,3.40
2018-06-28T06:52:29.941Z,2.40
2018-06-28T06:54:58.324Z,2.10
2018-06-28T06:57:26.777Z,2.20
2018-06-28T06:59:55.229Z,2.30
2018-06-28T07:02:23.879Z,2.40
2018-06-28T07:04:52.097Z,4.90
2018-06-28T07:07:20.686Z,4.78
2018-06-28T07:09:49.122Z,2.37
2018-06-28T07:12:17.621Z,2.37
2018-06-28T07:14:46.040Z,2.42
2018-06-28T07:17:14.439Z,2.60
2018-06-28T07:19:42.903Z,2.42
2018-06-28T07:22:11.336Z,2.30
2018-06-28T07:24:39.580Z,2.27
2018-06-28T07:27:08.222Z,2.37
2018-06-28T07:29:37.788Z,2.57
2018-06-28T07:32:06.256Z,2.40
2018-06-28T07:34:34.640Z,2.33
2018-06-28T07:37:03.110Z,2.53
2018-06-28T07:39:31.510Z,2.53
2018-06-28T07:41:59.922Z,2.20
2018-06-28T07:44:28.328Z,2.50
2018-06-28T07:46:56.888Z,2.60
2018-06-28T07:49:25.262Z,2.30
2018-06-28T07:51:53.642Z,2.40
2018-06-28T07:54:22.157Z,2.60
2018-06-28T07:56:50.572Z,2.53
2018-06-28T07:59:18.964Z,2.13
2018-06-28T08:01:47.384Z,2.60
2018-06-28T08:04:15.854Z,2.57
2018-06-28T08:06:44.289Z,2.50
2018-06-28T08:09:12.714Z,2.50
2018-06-28T08:11:41.117Z,2.57
2018-06-28T08:14:09.544Z,2.23
2018-06-28T08:16:38.044Z,2.00
2018-06-28T08:19:06.525Z,2.40
2018-06-28T08:21:35.012Z,2.30
2018-06-28T08:24:03.349Z,2.20
2018-06-28T08:26:31.732Z,2.23
2018-06-28T08:29:00.126Z,2.30
2018-06-28T08:31:28.560Z,2.30
2018-06-28T08:33:56.984Z,2.60
2018-06-28T08:36:25.448Z,2.57
2018-06-28T08:38:53.838Z,2.40
2018-06-28T08:41:22.244Z,2.30
2018-06-28T08:43:51.562Z,2.20
2018-06-28T08:46:19.986Z,2.00
2018-06-28T08:48:48.432Z,2.80
2018-06-28T08:51:16.894Z,2.50
2018-06-28T08:53:45.401Z,2.00
2018-06-28T08:56:13.873Z,2.47
2018-06-28T08:58:42.315Z,2.70
2018-06-28T09:01:10.813Z,3.60
2018-06-28T09:03:39.269Z,2.60
2018-06-28T09:06:07.751Z,2.60
2018-06-28T09:08:36.135Z,2.50
2018-06-28T09:11:04.583Z,2.43
2018-06-28T09:13:33.155Z,2.43
2018-06-28T09:16:01.600Z,2.30
2018-06-28T09:18:30.036Z,2.13
2018-06-28T09:20:58.470Z,2.37
2018-06-28T09:23:27.189Z,2.30
2018-06-28T09:25:55.616Z,2.47
2018-06-28T09:28:24.033Z,2.73
2018-06-28T09:30:52.513Z,2.43
2018-06-28T09:33:20.940Z,2.30
2018-06-28T09:35:49.529Z,2.40
2018-06-28T09:38:17.921Z,2.23
2018-06-28T09:40:46.004Z,2.17
2018-06-28T09:43:14.453Z,2.50
2018-06-28T09:45:42.899Z,2.43
2018-06-28T09:48:11.329Z,2.50
2018-06-28T09:50:39.844Z,2.20
2018-06-28T09:53:08.213Z,2.40
2018-06-28T09:55:36.612Z,2.10
2018-06-28T09:58:05.080Z,2.47
2018-06-28T10:00:38.815Z,2.10
2018-06-28T10:03:07.212Z,1.90
2018-06-28T10:05:35.660Z,2.10
2018-06-28T10:08:04.138Z,2.20
2018-06-28T10:10:32.609Z,2.20
2018-06-28T10:13:00.972Z,2.50
2018-06-28T10:15:29.702Z,2.40
2018-06-28T10:17:58.165Z,2.73
2018-06-28T10:20:26.319Z,2.17
2018-06-28T10:22:54.732Z,2.40
2018-06-28T10:25:23.322Z,2.10
2018-06-28T10:27:51.788Z,2.10
2018-06-28T10:30:20.293Z,2.30
2018-06-28T10:32:48.780Z,2.50
2018-06-28T10:35:17.364Z,2.33
2018-06-28T10:37:45.829Z,2.10
2018-06-28T10:40:14.264Z,2.43
2018-06-28T10:42:42.684Z,2.27
2018-06-28T10:45:11.348Z,2.30
2018-06-28T10:47:39.781Z,2.30
2018-06-28T10:50:08.289Z,2.10
2018-06-28T10:52:36.767Z,2.50
2018-06-28T10:55:05.235Z,2.50
2018-06-28T10:57:33.679Z,2.50
2018-06-28T11:00:02.158Z,2.50
2018-06-28T11:02:30.564Z,2.20
2018-06-28T11:04:59.039Z,2.50
2018-06-28T11:07:27.472Z,2.60
2018-06-28T11:09:55.889Z,2.20
2018-06-28T11:12:24.395Z,2.10
2018-06-28T11:14:53.032Z,2.30
2018-06-28T11:17:21.411Z,2.40
2018-06-28T11:19:49.897Z,2.37
2018-06-28T11:22:18.391Z,2.77
2018-06-28T11:24:47.516Z,16.85
2018-06-28T11:27:15.958Z,5.23
2018-06-28T11:29:44.386Z,2.90
2018-06-28T11:32:12.796Z,6.50
2018-06-28T11:34:41.205Z,2.80
2018-06-28T11:37:09.705Z,3.55
2018-06-28T11:39:38.065Z,2.13
2018-06-28T11:42:06.517Z,2.43
2018-06-28T11:44:34.945Z,2.70
2018-06-28T11:47:03.410Z,2.57
2018-06-28T11:49:31.819Z,2.67
2018-06-28T11:52:00.217Z,2.10
2018-06-28T11:54:28.662Z,2.52
2018-06-28T11:56:57.141Z,2.20
2018-06-28T11:59:25.593Z,2.10
2018-06-28T12:01:54.344Z,2.27
2018-06-28T12:04:22.889Z,2.20
2018-06-28T12:06:51.410Z,2.17
2018-06-28T12:09:20.161Z,2.47
2018-06-28T12:11:48.587Z,2.20
2018-06-28T12:14:16.744Z,2.25
2018-06-28T12:16:45.172Z,2.20
2018-06-28T12:19:13.609Z,2.40
2018-06-28T12:21:42.009Z,2.30
2018-06-28T12:24:10.446Z,2.40
2018-06-28T12:26:38.856Z,2.27
2018-06-28T12:29:07.594Z,2.08
2018-06-28T12:31:36.053Z,2.10
2018-06-28T12:34:04.533Z,2.08
2018-06-28T12:36:32.932Z,2.25
2018-06-28T12:39:01.333Z,2.00
2018-06-28T12:41:29.808Z,2.40
2018-06-28T12:43:58.319Z,2.15
2018-06-28T12:47:44.309Z,1.80
2018-06-28T12:50:12.860Z,2.30
2018-06-28T12:52:48.696Z,2.47
2018-06-28T12:55:18.344Z,1.90
2018-06-28T12:57:47.486Z,2.27
2018-06-28T13:00:16.323Z,2.35
2018-06-28T13:02:45.117Z,2.13
2018-06-28T13:05:14.628Z,2.30
2018-06-28T13:07:43.097Z,2.40
2018-06-28T13:10:13.801Z,2.45
2018-06-28T13:12:43.402Z,2.30
2018-06-28T13:15:12.952Z,2.22
2018-06-28T13:17:41.909Z,2.42
2018-06-28T13:20:11.237Z,2.42
2018-06-28T13:22:40.335Z,2.60
2018-06-28T13:25:10.061Z,3.12
2018-06-28T13:27:38.733Z,2.80
2018-06-28T13:30:08.639Z,2.00
2018-06-28T13:32:37.056Z,2.40
2018-06-28T13:35:05.588Z,2.35
2018-06-28T13:37:34.038Z,2.10
2018-06-28T13:40:02.519Z,2.45
2018-06-28T13:42:30.936Z,2.42
2018-06-28T13:44:59.377Z,2.75
2018-06-28T13:47:27.808Z,2.55
2018-06-28T13:49:56.219Z,2.50
2018-06-28T13:52:24.607Z,2.17
2018-06-28T13:54:53.160Z,2.83
2018-06-28T13:57:21.637Z,2.20
2018-06-28T13:59:50.073Z,2.30
2018-06-28T14:02:18.600Z,2.20
2018-06-28T14:04:47.000Z,2.52
2018-06-28T14:07:15.469Z,2.33
2018-06-28T14:09:44.021Z,2.50
2018-06-28T14:12:14.470Z,2.20
2018-06-28T14:14:43.372Z,2.50
2018-06-28T14:17:11.775Z,2.58
2018-06-28T14:19:40.264Z,2.50
2018-06-28T14:22:08.711Z,2.87
2018-06-28T14:24:37.114Z,2.50
2018-06-28T14:27:05.600Z,2.50
2018-06-28T14:29:34.008Z,2.70
2018-06-28T14:32:02.833Z,3.10
2018-06-28T14:34:31.245Z,2.20
2018-06-28T14:36:59.671Z,2.55
2018-06-28T14:39:28.286Z,3.10
2018-06-28T14:41:56.733Z,2.33
2018-06-28T14:44:25.117Z,2.12
2018-06-28T14:46:53.960Z,1.90
2018-06-28T14:49:22.472Z,2.50
2018-06-28T14:51:50.869Z,2.55
2018-06-28T14:54:19.404Z,2.60
2018-06-28T14:56:48.231Z,2.90
2018-06-28T14:59:16.623Z,2.50
2018-06-28T15:01:45.032Z,2.25
2018-06-28T15:04:13.512Z,2.10
2018-06-28T15:06:41.989Z,2.42
2018-06-28T15:09:12.029Z,2.50
2018-06-28T15:11:40.596Z,2.40
2018-06-28T15:14:09.017Z,2.40
2018-06-28T15:16:37.443Z,2.20
2018-06-28T15:19:05.946Z,2.22
2018-06-28T15:21:34.430Z,2.30
2018-06-28T15:24:02.860Z,2.80
2018-06-28T15:26:31.480Z,2.20
2018-06-28T15:28:59.876Z,2.10
2018-06-28T15:31:28.315Z,2.08
2018-06-28T15:33:56.788Z,2.20
2018-06-28T15:36:25.236Z,1.95
2018-06-28T15:38:53.386Z,2.00
2018-06-28T15:41:22.821Z,2.20
2018-06-28T15:43:51.341Z,2.05
2018-06-28T15:46:19.851Z,2.20
2018-06-28T15:48:48.397Z,1.90
2018-06-28T15:51:18.009Z,2.25
2018-06-28T15:53:46.455Z,2.12
2018-06-28T15:56:14.916Z,2.20
2018-06-28T15:58:43.587Z,2.20
2018-06-28T16:01:12.545Z,2.12
2018-06-28T16:03:41.094Z,2.90
2018-06-28T16:06:09.551Z,2.70
2018-06-28T16:08:37.993Z,3.25
2018-06-28T16:11:06.486Z,2.83
2018-06-28T16:13:34.912Z,2.42
2018-06-28T16:16:03.332Z,2.40
2018-06-28T16:18:31.778Z,2.30
2018-06-28T16:21:00.203Z,2.70
2018-06-28T16:23:28.712Z,2.10
2018-06-28T16:25:57.396Z,2.40
2018-06-28T16:28:25.875Z,2.67
2018-06-28T16:30:54.284Z,2.20
2018-06-28T16:33:22.724Z,2.10
2018-06-28T16:35:51.237Z,2.35
2018-06-28T16:38:19.747Z,2.10
2018-06-28T16:40:48.504Z,2.08
2018-06-28T16:43:18.159Z,1.98
2018-06-28T16:45:46.622Z,2.15
2018-06-28T16:48:15.070Z,2.52
2018-06-28T16:50:43.527Z,2.35
2018-06-28T16:53:12.132Z,2.40
2018-06-28T16:55:40.911Z,2.17
2018-06-28T16:58:10.090Z,2.30
2018-06-28T17:00:39.096Z,2.50
2018-06-28T17:03:07.672Z,2.65
2018-06-28T17:05:36.110Z,2.20
2018-06-28T17:08:04.631Z,2.42
2018-06-28T17:10:33.041Z,2.08
2018-06-28T17:13:01.518Z,2.15
2018-06-28T17:15:29.960Z,2.27
2018-06-28T17:17:58.408Z,2.02
2018-06-28T17:20:27.128Z,2.30
2018-06-28T17:22:55.677Z,2.20
2018-06-28T17:25:24.228Z,2.47
2018-06-28T17:27:52.706Z,2.43
2018-06-28T17:30:21.149Z,2.60
2018-06-28T17:32:49.642Z,2.65
2018-06-28T17:35:18.034Z,2.17
2018-06-28T17:37:46.512Z,2.27
2018-06-28T17:40:15.039Z,2.00
2018-06-28T17:42:43.745Z,2.02
2018-06-28T17:45:12.212Z,2.13
2018-06-28T17:47:40.655Z,2.20
2018-06-28T17:50:09.213Z,2.10
2018-06-28T17:52:37.648Z,2.07
2018-06-28T17:55:06.099Z,2.12
2018-06-28T17:57:34.542Z,1.90
2018-06-28T18:00:02.833Z,2.05
2018-06-28T18:02:32.085Z,2.10
2018-06-28T18:05:00.573Z,2.20
2018-06-28T18:07:29.245Z,2.12
2018-06-28T18:09:57.826Z,2.27
2018-06-28T18:12:26.215Z,2.20
2018-06-28T18:14:54.628Z,2.10
2018-06-28T18:17:23.125Z,2.00
2018-06-28T18:19:51.560Z,2.37
2018-06-28T18:22:19.993Z,2.40
2018-06-28T18:24:48.397Z,2.12
2018-06-28T18:27:16.845Z,2.50
2018-06-28T18:29:45.313Z,2.15
2018-06-28T18:32:13.736Z,1.93
2018-06-28T18:34:42.804Z,2.10
2018-06-28T18:37:11.385Z,1.90
2018-06-28T18:39:39.881Z,1.95
2018-06-28T18:42:08.462Z,2.20
2018-06-28T18:44:37.150Z,2.10
2018-06-28T18:47:05.900Z,1.90
2018-06-28T18:49:34.551Z,2.17
2018-06-28T18:52:02.979Z,2.43
2018-06-28T18:54:31.393Z,2.00
2018-06-28T18:56:59.854Z,3.10
2018-06-28T18:59:28.312Z,3.77
2018-06-28T19:01:56.511Z,3.20
2018-06-28T19:04:24.981Z,2.40
2018-06-28T19:06:53.411Z,2.30
2018-06-28T19:09:21.953Z,2.30
2018-06-28T19:11:50.392Z,2.33
2018-06-28T19:14:24.483Z,2.10
2018-06-28T19:16:55.077Z,2.20
2018-06-28T19:19:23.472Z,1.90
2018-06-28T19:21:57.314Z,2.03
2018-06-28T19:24:25.950Z,2.00
2018-06-28T19:26:54.421Z,2.10
2018-06-28T19:29:28.241Z,2.80
2018-06-28T19:32:01.953Z,2.40
2018-06-28T19:34:30.380Z,2.50
2018-06-28T19:36:58.836Z,2.23
2018-06-28T19:39:32.674Z,2.77
2018-06-28T19:42:06.476Z,3.40
2018-06-28T19:44:34.918Z,3.20
2018-06-28T19:47:03.386Z,3.17
2018-06-28T19:49:37.356Z,3.47
2018-06-28T19:52:11.189Z,3.00
2018-06-28T19:54:39.698Z,3.07
2018-06-28T19:57:08.183Z,3.10
2018-06-28T19:59:41.880Z,3.50
2018-06-28T20:02:15.603Z,3.87
2018-06-28T20:04:44.990Z,3.00
2018-06-28T20:07:13.444Z,4.47
2018-06-28T20:09:42.318Z,3.63
2018-06-28T20:12:16.183Z,3.20
2018-06-28T20:14:49.967Z,3.30
2018-06-28T20:17:23.814Z,2.83
2018-06-28T20:19:57.696Z,2.80
2018-06-28T20:22:26.985Z,3.27
2018-06-28T20:24:55.650Z,3.60
2018-06-28T20:27:31.074Z,4.93
2018-06-28T20:30:04.995Z,6.37
2018-06-28T20:32:38.768Z,5.03
2018-06-28T20:35:07.248Z,7.37
2018-06-28T20:37:35.812Z,5.93
2018-06-28T20:40:04.597Z,4.30
2018-06-28T20:42:33.417Z,3.90
2018-06-28T20:45:01.885Z,3.50
2018-06-28T20:47:30.374Z,3.40
2018-06-28T20:49:58.922Z,5.83
2018-06-28T20:52:27.390Z,5.63
2018-06-28T20:54:55.852Z,7.40
2018-06-28T20:57:24.362Z,6.30
2018-06-28T20:59:52.828Z,7.40
2018-06-28T21:02:21.670Z,8.97
2018-06-28T21:04:50.501Z,7.87
2018-06-28T21:07:19.291Z,9.07
2018-06-28T21:09:48.046Z,6.87
2018-06-28T21:12:16.508Z,6.67
2018-06-28T21:14:45.084Z,7.67
2018-06-28T21:17:13.738Z,8.17
2018-06-28T21:19:42.186Z,6.03
2018-06-28T21:22:10.616Z,6.63
2018-06-28T21:24:39.264Z,6.97
2018-06-28T21:27:07.754Z,6.50
2018-06-28T21:29:36.310Z,6.63
2018-06-28T21:32:06.986Z,6.33
2018-06-28T21:34:35.481Z,6.73
2018-06-28T21:37:04.000Z,7.20
2018-06-28T21:39:32.541Z,6.37
2018-06-28T21:42:00.973Z,7.03
2018-06-28T21:44:29.424Z,6.87
2018-06-28T21:46:57.843Z,5.47
2018-06-28T21:49:26.413Z,5.77
2018-06-28T21:51:54.925Z,5.20
2018-06-28T21:54:23.362Z,5.50
2018-06-28T21:56:51.975Z,4.10
2018-06-28T21:59:20.380Z,4.90
2018-06-28T22:01:55.465Z,4.33
2018-06-28T22:04:23.645Z,4.27
2018-06-28T22:06:52.061Z,3.50
2018-06-28T22:09:20.977Z,3.60
2018-06-28T22:11:49.581Z,3.23
2018-06-28T22:14:18.111Z,3.73
2018-06-28T22:16:46.658Z,3.37
2018-06-28T22:19:15.181Z,4.07
2018-06-28T22:21:43.925Z,4.53
2018-06-28T22:24:12.632Z,4.00
2018-06-28T22:26:41.141Z,4.23
2018-06-28T22:29:09.584Z,3.90
2018-06-28T22:31:38.029Z,3.20
2018-06-28T22:34:06.610Z,3.33
2018-06-28T22:36:35.060Z,2.63
2018-06-28T22:39:03.718Z,2.47
2018-06-28T22:41:32.111Z,2.60
2018-06-28T22:44:00.660Z,2.50
2018-06-28T22:46:29.137Z,2.53
2018-06-28T22:48:57.550Z,2.40
2018-06-28T22:51:26.024Z,2.50
2018-06-28T22:53:54.452Z,2.50
2018-06-28T22:56:22.965Z,2.47
2018-06-28T22:58:51.381Z,2.17
2018-06-28T23:01:19.910Z,2.43
2018-06-28T23:03:48.533Z,2.30
2018-06-28T23:06:17.005Z,2.20
2018-06-28T23:08:45.880Z,2.20
2018-06-28T23:11:14.285Z,1.80
2018-06-28T23:13:42.736Z,1.90
2018-06-28T23:16:11.243Z,2.33
2018-06-28T23:18:39.693Z,2.13
2018-06-28T23:21:08.161Z,2.60
2018-06-28T23:23:36.598Z,2.23
2018-06-28T23:26:05.199Z,2.40
2018-06-28T23:28:33.624Z,2.27
2018-06-28T23:31:02.026Z,2.10
2018-06-28T23:33:30.467Z,2.20
2018-06-28T23:35:59.481Z,2.10
2018-06-28T23:38:28.044Z,2.33
2018-06-28T23:40:56.533Z,2.23
2018-06-28T23:43:25.180Z,2.10
2018-06-28T23:45:53.592Z,2.20
2018-06-28T23:48:21.973Z,2.10
2018-06-28T23:50:50.481Z,2.10
2018-06-28T23:53:18.872Z,1.93
2018-06-28T23:55:47.327Z,2.13
2018-06-28T23:58:15.729Z,2.20
